createdAt,value
2023-01-01T00:00:01.496Z,0.00
2023-01-01T00:05:02.234Z,0.00
2023-01-01T00:10:02.945Z,0.00
2023-01-01T00:15:03.665Z,0.00
2023-01-01T00:20:04.412Z,0.00
2023-01-01T00:25:05.106Z,0.00
2023-01-01T00:30:05.822Z,0.00
2023-01-01T00:35:06.557Z,0.00
2023-01-01T00:40:07.299Z,0.00
2023-01-01T00:45:08.017Z,0.00
2023-01-01T00:50:08.726Z,0.00
2023-01-01T00:55:09.480Z,0.00
2023-01-01T01:00:10.186Z,0.00
2023-01-01T01:05:10.901Z,0.00
2023-01-01T01:10:11.694Z,0.00
2023-01-01T01:15:12.433Z,0.00
2023-01-01T01:20:13.130Z,0.00
2023-01-01T01:25:13.889Z,0.00
2023-01-01T01:30:14.575Z,0.00
2023-01-01T01:35:15.309Z,0.00
2023-01-01T01:40:16.021Z,0.00
2023-01-01T01:45:16.758Z,0.00
2023-01-01T01:50:17.478Z,0.00
2023-01-01T01:55:18.188Z,0.00
2023-01-01T02:00:18.931Z,0.00
2023-01-01T02:05:19.621Z,0.00
2023-01-01T02:10:20.349Z,0.00
2023-01-01T02:15:21.066Z,0.00
2023-01-01T02:20:21.810Z,0.00
2023-01-01T02:25:22.501Z,0.00
2023-01-01T02:30:23.239Z,0.00
2023-01-01T02:35:23.968Z,0.00
2023-01-01T02:40:24.683Z,0.00
2023-01-01T02:45:25.426Z,0.00
2023-01-01T02:50:26.149Z,0.00
2023-01-01T02:55:26.887Z,0.00
2023-01-01T03:00:27.586Z,0.00
2023-01-01T03:05:28.353Z,0.00
2023-01-01T03:10:29.087Z,0.00
2023-01-01T03:15:29.804Z,0.00
2023-01-01T03:20:30.543Z,0.00
2023-01-01T03:25:31.291Z,0.00
2023-01-01T03:30:32.024Z,0.00
2023-01-01T03:35:32.822Z,0.00
2023-01-01T03:40:33.705Z,0.00
2023-01-01T03:45:34.393Z,0.00
2023-01-01T03:50:35.101Z,0.00
2023-01-01T03:55:35.869Z,0.00
2023-01-01T04:00:36.609Z,0.00
2023-01-01T04:05:37.313Z,0.00
2023-01-01T04:10:38.025Z,0.00
2023-01-01T04:15:38.773Z,0.00
2023-01-01T04:20:39.493Z,0.00
2023-01-01T04:25:40.186Z,0.00
2023-01-01T04:35:49.802Z,0.00
2023-01-01T04:40:50.450Z,0.00
2023-01-01T04:45:51.213Z,0.00
2023-01-01T04:50:51.908Z,0.00
2023-01-01T04:55:52.637Z,0.00
2023-01-01T05:00:53.358Z,0.00
2023-01-01T05:05:54.055Z,0.00
2023-01-01T05:11:01.825Z,0.00
2023-01-01T05:15:55.493Z,0.00
2023-01-01T05:20:56.217Z,0.00
2023-01-01T05:25:56.932Z,0.00
2023-01-01T05:30:57.678Z,0.00
2023-01-01T05:35:58.350Z,0.00
2023-01-01T05:40:59.079Z,0.00
2023-01-01T05:45:59.903Z,0.00
2023-01-01T05:51:00.590Z,0.00
2023-01-01T05:56:01.335Z,0.00
2023-01-01T06:01:02.128Z,0.00
2023-01-01T06:06:02.870Z,0.00
2023-01-01T06:11:03.605Z,0.00
2023-01-01T06:16:04.347Z,0.00
2023-01-01T06:21:05.102Z,0.00
2023-01-01T06:26:05.802Z,0.00
2023-01-01T06:31:06.580Z,0.00
2023-01-01T06:36:07.310Z,0.00
2023-01-01T06:41:08.579Z,0.00
2023-01-01T06:46:08.835Z,0.00
2023-01-01T06:51:09.519Z,0.00
2023-01-01T06:56:10.173Z,0.00
2023-01-01T07:01:11.017Z,0.00
2023-01-01T07:06:11.767Z,0.00
2023-01-01T07:11:12.451Z,0.00
2023-01-01T07:16:13.819Z,0.00
2023-01-01T07:21:13.588Z,0.00
2023-01-01T07:26:14.285Z,0.00
2023-01-01T07:31:15.042Z,0.00
2023-01-01T07:36:15.724Z,0.00
2023-01-01T07:41:16.414Z,0.00
2023-01-01T07:46:17.154Z,5.62
2023-01-01T07:51:17.790Z,5.62
2023-01-01T07:56:18.473Z,5.62
2023-01-01T08:01:19.461Z,11.25
2023-01-01T08:06:19.712Z,11.25
2023-01-01T08:11:20.360Z,11.25
2023-01-01T08:16:21.128Z,11.25
2023-01-01T08:21:21.888Z,16.88
2023-01-01T08:26:22.568Z,16.88
2023-01-01T08:31:23.263Z,16.88
2023-01-01T08:36:23.881Z,16.88
2023-01-01T08:41:24.569Z,16.88
2023-01-01T08:46:25.358Z,22.50
2023-01-01T08:51:26.021Z,28.12
2023-01-01T08:56:26.723Z,16.88
2023-01-01T09:01:27.465Z,16.88
2023-01-01T09:06:28.164Z,16.88
2023-01-01T09:11:28.830Z,28.12
2023-01-01T09:16:29.554Z,28.12
2023-01-01T09:21:30.221Z,28.12
2023-01-01T09:26:30.926Z,28.12
2023-01-01T09:31:31.625Z,28.12
2023-01-01T09:36:32.272Z,39.38
2023-01-01T09:41:32.955Z,56.25
2023-01-01T09:46:33.686Z,67.50
2023-01-01T09:51:34.511Z,67.50
2023-01-01T09:56:35.221Z,50.62
2023-01-01T10:01:36.111Z,50.62
2023-01-01T10:06:36.832Z,67.50
2023-01-01T10:11:37.512Z,67.50
2023-01-01T10:16:38.259Z,61.88
2023-01-01T10:21:43.505Z,50.62
2023-01-01T10:26:40.499Z,56.25
2023-01-01T10:31:40.215Z,61.88
2023-01-01T10:36:40.896Z,61.88
2023-01-01T10:41:41.686Z,61.88
2023-01-01T10:46:43.191Z,61.88
2023-01-01T10:51:42.857Z,61.88
2023-01-01T10:56:43.524Z,67.50
2023-01-01T11:01:44.414Z,50.62
2023-01-01T11:06:45.120Z,50.62
2023-01-01T11:11:45.774Z,50.62
2023-01-01T11:16:46.515Z,56.25
2023-01-01T11:21:47.411Z,45.00
2023-01-01T11:26:54.000Z,28.12
2023-01-01T11:31:49.346Z,33.75
2023-01-01T11:36:49.116Z,56.25
2023-01-01T11:41:49.904Z,78.75
2023-01-01T11:46:50.518Z,78.75
2023-01-01T11:51:51.200Z,73.12
2023-01-01T11:56:51.880Z,56.25
2023-01-01T12:01:52.587Z,50.62
2023-01-01T12:06:53.324Z,39.38
2023-01-01T12:11:53.996Z,33.75
2023-01-01T12:16:54.664Z,33.75
2023-01-01T12:21:55.399Z,50.62
2023-01-01T12:26:56.050Z,61.88
2023-01-01T12:32:03.849Z,73.12
2023-01-01T12:36:57.480Z,67.50
2023-01-01T12:41:58.185Z,61.88
2023-01-01T12:46:58.863Z,61.88
2023-01-01T12:51:59.587Z,50.62
2023-01-01T12:57:00.366Z,56.25
2023-01-01T13:02:01.158Z,50.62
2023-01-01T13:07:01.874Z,50.62
2023-01-01T13:12:02.525Z,50.62
2023-01-01T13:17:03.206Z,45.00
2023-01-01T13:22:03.871Z,45.00
2023-01-01T13:27:09.047Z,45.00
2023-01-01T13:32:06.182Z,39.38
2023-01-01T13:37:05.857Z,39.38
2023-01-01T13:42:06.544Z,33.75
2023-01-01T13:47:07.278Z,28.12
2023-01-01T13:52:08.721Z,22.50
2023-01-01T13:57:08.461Z,28.12
2023-01-01T14:02:09.312Z,22.50
2023-01-01T14:07:40.834Z,22.50
2023-01-01T14:12:11.628Z,22.50
2023-01-01T14:17:11.366Z,16.88
2023-01-01T14:22:12.030Z,16.88
2023-01-01T14:27:12.769Z,11.25
2023-01-01T14:32:13.556Z,11.25
2023-01-01T14:37:14.191Z,5.62
2023-01-01T14:42:15.953Z,5.62
2023-01-01T14:47:15.793Z,5.62
2023-01-01T14:52:16.402Z,0.00
2023-01-01T14:57:17.102Z,0.00
2023-01-01T15:02:18.104Z,0.00
2023-01-01T15:07:18.377Z,0.00
2023-01-01T15:12:19.056Z,0.00
2023-01-01T15:17:19.838Z,0.00
2023-01-01T15:22:20.469Z,0.00
2023-01-01T15:27:21.179Z,0.00
2023-01-01T15:32:21.844Z,0.00
2023-01-01T15:37:22.608Z,0.00
2023-01-01T15:42:23.335Z,0.00
2023-01-01T15:47:24.083Z,0.00
2023-01-01T15:52:24.848Z,0.00
2023-01-01T15:57:25.567Z,0.00
2023-01-01T16:02:26.415Z,0.00
2023-01-01T16:07:27.162Z,0.00
2023-01-01T16:12:27.904Z,0.00
2023-01-01T16:17:28.761Z,0.00
2023-01-01T16:22:34.866Z,0.00
2023-01-01T16:27:31.113Z,0.00
2023-01-01T16:32:30.904Z,0.00
2023-01-01T16:37:31.647Z,0.00
2023-01-01T16:42:32.391Z,0.00
2023-01-01T16:47:34.227Z,0.00
2023-01-01T16:52:34.096Z,0.00
2023-01-01T16:57:34.831Z,0.00
2023-01-01T17:02:35.757Z,0.00
2023-01-01T17:07:36.118Z,0.00
2023-01-01T17:12:36.860Z,0.00
2023-01-01T17:17:37.656Z,0.00
2023-01-01T17:22:38.339Z,0.00
2023-01-01T17:27:39.091Z,0.00
2023-01-01T17:32:39.823Z,0.00
2023-01-01T17:37:40.625Z,0.00
2023-01-01T17:42:41.311Z,0.00
2023-01-01T17:47:42.033Z,0.00
2023-01-01T17:52:42.883Z,0.00
2023-01-01T17:57:43.609Z,0.00
2023-01-01T18:02:44.548Z,0.00
2023-01-01T18:07:44.835Z,0.00
2023-01-01T18:12:45.589Z,0.00
2023-01-01T18:17:46.316Z,0.00
2023-01-01T18:22:47.053Z,0.00
2023-01-01T18:27:52.522Z,0.00
2023-01-01T18:38:38.205Z,0.00
2023-01-01T18:43:39.056Z,0.00
2023-01-01T18:48:39.452Z,0.00
2023-01-01T18:53:40.251Z,0.00
2023-01-01T18:58:40.997Z,0.00
2023-01-01T19:03:41.872Z,0.00
2023-01-01T19:08:42.549Z,0.00
2023-01-01T19:13:43.332Z,0.00
2023-01-01T19:18:43.988Z,0.00
2023-01-01T19:23:44.640Z,0.00
2023-01-01T19:28:46.480Z,0.00
2023-01-01T19:33:46.300Z,0.00
2023-01-01T19:38:46.953Z,0.00
2023-01-01T19:43:47.689Z,0.00
2023-01-01T19:48:48.411Z,0.00
2023-01-01T19:53:49.163Z,0.00
2023-01-01T19:58:49.892Z,0.00
2023-01-01T20:03:56.179Z,0.00
2023-01-01T20:08:52.284Z,0.00
2023-01-01T20:13:51.987Z,0.00
2023-01-01T20:18:52.719Z,0.00
2023-01-01T20:23:53.434Z,0.00
2023-01-01T20:28:54.329Z,0.00
2023-01-01T20:33:55.101Z,0.00
2023-01-01T20:38:55.832Z,0.00
2023-01-01T20:43:56.513Z,0.00
2023-01-01T20:48:57.261Z,0.00
2023-01-01T20:53:57.924Z,0.00
2023-01-01T20:59:02.075Z,0.00
2023-01-01T21:04:00.243Z,0.00
2023-01-01T21:08:59.971Z,0.00
2023-01-01T21:14:00.693Z,0.00
2023-01-01T21:19:01.421Z,0.00
2023-01-01T21:24:02.152Z,0.00
2023-01-01T21:29:02.869Z,0.00
2023-01-01T21:34:03.596Z,0.00
2023-01-01T21:39:04.903Z,0.00
2023-01-01T21:44:05.212Z,0.00
2023-01-01T21:49:05.880Z,0.00
2023-01-01T21:54:06.593Z,0.00
2023-01-01T21:59:07.305Z,0.00
2023-01-01T22:04:08.140Z,0.00
2023-01-01T22:09:08.801Z,0.00
2023-01-01T22:14:09.514Z,0.00
2023-01-01T22:19:10.259Z,0.00
2023-01-01T22:24:10.991Z,0.00
2023-01-01T22:29:11.689Z,0.00
2023-01-01T22:34:12.422Z,0.00
2023-01-01T22:39:13.156Z,0.00
2023-01-01T22:44:14.078Z,0.00
2023-01-01T22:49:14.848Z,0.00
2023-01-01T22:54:15.570Z,0.00
2023-01-01T22:59:16.262Z,0.00
2023-01-01T23:04:16.975Z,0.00
2023-01-01T23:09:17.722Z,0.00
2023-01-01T23:14:18.412Z,0.00
2023-01-01T23:19:19.144Z,0.00
2023-01-01T23:24:19.873Z,0.00
2023-01-01T23:29:20.612Z,0.00
2023-01-01T23:34:21.285Z,0.00
2023-01-01T23:39:22.006Z,0.00
2023-01-01T23:44:22.730Z,0.00
2023-01-01T23:49:23.481Z,0.00
2023-01-01T23:54:24.156Z,0.00
2023-01-01T23:59:24.886Z,0.00
